Time;durP1;ratioP1;P1;durP2;ratioP2;P2;SDS_P1;SDS_P2;PMS_P1;PMS_P2;Temp;Humidity;BMP_temperature;BMP_pressure;BME280_temperature;BME280_humidity;BME280_pressure;Samples;Min_cycle;Max_cycle;Signal;HPM_P1;HPM_P2
2020/04/21 00:00:41;;;;;;;1.40;1.30;;;;;;;19.02;36.56;100315.83;;;;-52
2020/04/21 00:09:21;;;;;;;1.84;1.46;;;;;;;19.01;36.57;100306.52;;;;-52
2020/04/21 00:24:56;;;;;;;1.59;1.41;;;;;;;18.99;36.58;100291.87;;;;-52
2020/04/21 00:27:41;;;;;;;1.55;1.45;;;;;;;18.99;36.59;100285.51;;;;-52
2020/04/21 00:36:08;;;;;;;1.63;1.53;;;;;;;18.98;36.47;100274.48;;;;-52
2020/04/21 00:38:51;;;;;;;1.50;1.40;;;;;;;18.97;36.56;100282.08;;;;-52
2020/04/21 00:54:37;;;;;;;1.57;1.47;;;;;;;18.96;36.47;100266.63;;;;-53
2020/04/21 00:57:41;;;;;;;1.57;1.47;;;;;;;18.96;36.52;100264.36;;;;-52
2020/04/21 01:05:53;;;;;;;1.77;1.51;;;;;;;18.95;36.57;100258.79;;;;-52
2020/04/21 01:08:40;;;;;;;1.80;1.60;;;;;;;18.94;36.53;100255.94;;;;-52
2020/04/21 01:12:07;;;;;;;1.60;1.50;;;;;;;18.94;36.47;100252.33;;;;-52
2020/04/21 01:14:34;;;;;;;1.78;1.67;;;;;;;18.94;36.55;100257.61;;;;-52
2020/04/21 01:17:42;;;;;;;1.60;1.40;;;;;;;18.95;36.51;100258.12;;;;-52
2020/04/21 01:20:39;;;;;;;1.70;1.60;;;;;;;18.93;36.54;100256.06;;;;-52
2020/04/21 01:32:32;;;;;;;1.60;1.50;;;;;;;18.94;36.50;100256.07;;;;-52
2020/04/21 01:39:34;;;;;;;1.55;1.45;;;;;;;18.92;36.45;100250.83;;;;-52
2020/04/21 01:42:33;;;;;;;1.92;1.50;;;;;;;18.91;36.40;100246.51;;;;-52
2020/04/21 01:45:43;;;;;;;1.55;1.45;;;;;;;18.92;36.50;100248.22;;;;-52
2020/04/21 01:48:44;;;;;;;1.76;1.59;;;;;;;18.91;36.49;100242.48;;;;-52
2020/04/21 01:51:37;;;;;;;1.79;1.61;;;;;;;18.91;36.46;100247.07;;;;-52
2020/04/21 01:54:36;;;;;;;1.66;1.56;;;;;;;18.90;36.53;100252.42;;;;-52
2020/04/21 01:57:37;;;;;;;1.83;1.56;;;;;;;18.90;36.51;100248.73;;;;-52
2020/04/21 02:01:26;;;;;;;1.54;1.44;;;;;;;18.91;36.45;100250.92;;;;-52
2020/04/21 02:04:36;;;;;;;1.70;1.60;;;;;;;18.90;36.48;100248.70;;;;-52
2020/04/21 02:07:34;;;;;;;1.70;1.60;;;;;;;18.90;36.45;100250.48;;;;-53
2020/04/21 02:10:37;;;;;;;2.18;1.50;;;;;;;18.90;36.49;100248.73;;;;-52
2020/04/21 02:13:43;;;;;;;1.68;1.56;;;;;;;18.89;36.42;100254.89;;;;-53
2020/04/21 02:26:34;;;;;;;1.79;1.65;;;;;;;18.88;36.40;100247.27;;;;-52
2020/04/21 02:33:11;;;;;;;2.01;1.59;;;;;;;18.87;36.45;100246.87;;;;-52
2020/04/21 02:39:41;;;;;;;1.68;1.58;;;;;;;18.87;36.43;100246.23;;;;-52
2020/04/21 02:42:46;;;;;;;1.70;1.51;;;;;;;18.86;36.42;100243.95;;;;-52
2020/04/21 02:45:44;;;;;;;2.50;1.70;;;;;;;18.86;36.40;100245.16;;;;-53
2020/04/21 03:00:44;;;;;;;1.83;1.70;;;;;;;18.85;36.42;100238.08;;;;-52
2020/04/21 03:05:17;;;;;;;2.03;1.70;;;;;;;18.85;36.41;100240.83;;;;-52
2020/04/21 03:08:38;;;;;;;1.85;1.71;;;;;;;18.84;36.45;100238.41;;;;-52
2020/04/21 03:11:40;;;;;;;1.95;1.74;;;;;;;18.84;36.41;100234.22;;;;-53
2020/04/21 03:14:34;;;;;;;1.90;1.70;;;;;;;18.84;36.46;100241.11;;;;-52
2020/04/21 03:17:40;;;;;;;1.89;1.70;;;;;;;18.83;36.44;100239.34;;;;-53
2020/04/21 03:20:45;;;;;;;1.79;1.60;;;;;;;18.84;36.44;100238.00;;;;-52
2020/04/21 03:23:35;;;;;;;2.39;1.73;;;;;;;18.83;36.48;100233.71;;;;-52
2020/04/21 03:27:16;;;;;;;1.80;1.70;;;;;;;18.83;36.44;100229.77;;;;-52
2020/04/21 03:30:36;;;;;;;1.79;1.69;;;;;;;18.82;36.44;100233.23;;;;-52
2020/04/21 03:33:35;;;;;;;1.81;1.68;;;;;;;18.83;36.46;100231.50;;;;-52
2020/04/21 03:36:41;;;;;;;2.01;1.83;;;;;;;18.82;36.50;100234.41;;;;-51
2020/04/21 03:39:27;;;;;;;2.05;1.80;;;;;;;18.82;36.49;100229.28;;;;-52
2020/04/21 03:42:26;;;;;;;1.89;1.70;;;;;;;18.81;36.45;100234.39;;;;-52
2020/04/21 03:45:26;;;;;;;2.19;1.99;;;;;;;18.81;36.39;100236.80;;;;-53
2020/04/21 03:48:26;;;;;;;3.67;1.83;;;;;;;18.82;36.44;100240.83;;;;-53
2020/04/21 03:51:26;;;;;;;1.83;1.71;;;;;;;18.81;36.34;100236.80;;;;-52
2020/04/21 03:54:26;;;;;;;2.13;1.83;;;;;;;18.81;36.44;100232.58;;;;-52
2020/04/21 03:57:26;;;;;;;2.11;1.83;;;;;;;18.80;36.41;100234.25;;;;-52
2020/04/21 04:00:26;;;;;;;2.13;1.93;;;;;;;18.80;36.40;100237.36;;;;-52
2020/04/21 04:03:26;;;;;;;2.13;1.92;;;;;;;18.81;36.39;100240.78;;;;-52
2020/04/21 04:06:26;;;;;;;2.01;1.81;;;;;;;18.80;36.41;100240.71;;;;-52
2020/04/21 04:09:26;;;;;;;2.03;1.80;;;;;;;18.80;36.36;100241.11;;;;-53
2020/04/21 04:12:26;;;;;;;2.10;1.90;;;;;;;18.81;36.38;100244.29;;;;-52
2020/04/21 04:15:26;;;;;;;1.84;1.74;;;;;;;18.80;36.40;100242.68;;;;-52
2020/04/21 04:18:26;;;;;;;1.94;1.75;;;;;;;18.79;36.35;100244.08;;;;-52
2020/04/21 04:21:26;;;;;;;1.80;1.70;;;;;;;18.80;36.41;100244.69;;;;-52
2020/04/21 04:24:26;;;;;;;3.14;1.85;;;;;;;18.80;36.42;100245.28;;;;-52
2020/04/21 04:27:26;;;;;;;1.93;1.77;;;;;;;18.80;36.38;100249.54;;;;-53
2020/04/21 04:30:26;;;;;;;1.91;1.75;;;;;;;18.79;36.45;100250.27;;;;-52
2020/04/21 04:33:26;;;;;;;1.99;1.79;;;;;;;18.78;36.40;100252.80;;;;-53
2020/04/21 04:36:26;;;;;;;2.01;1.90;;;;;;;18.79;36.33;100260.41;;;;-52
2020/04/21 04:39:26;;;;;;;2.06;1.82;;;;;;;18.79;36.32;100261.48;;;;-52
2020/04/21 04:42:26;;;;;;;2.04;1.87;;;;;;;18.78;36.37;100258.19;;;;-52
2020/04/21 04:45:26;;;;;;;2.10;1.90;;;;;;;18.78;36.34;100256.98;;;;-52
2020/04/21 04:48:26;;;;;;;2.06;1.84;;;;;;;18.78;36.31;100254.47;;;;-52
2020/04/21 04:51:26;;;;;;;2.07;1.79;;;;;;;18.78;36.36;100259.25;;;;-52
2020/04/21 04:54:26;;;;;;;2.20;1.99;;;;;;;18.79;36.43;100258.20;;;;-52
2020/04/21 04:57:26;;;;;;;1.97;1.80;;;;;;;18.78;36.43;100260.53;;;;-52
2020/04/21 05:00:26;;;;;;;2.06;1.86;;;;;;;18.79;36.44;100258.96;;;;-52
2020/04/21 05:03:26;;;;;;;2.31;2.07;;;;;;;18.79;36.41;100259.80;;;;-52
2020/04/21 05:06:26;;;;;;;2.10;1.90;;;;;;;18.78;36.42;100269.30;;;;-52
2020/04/21 05:09:26;;;;;;;2.10;1.90;;;;;;;18.78;36.35;100265.95;;;;-52
2020/04/21 05:12:26;;;;;;;2.01;1.81;;;;;;;18.79;36.42;100265.05;;;;-52
2020/04/21 05:15:26;;;;;;;2.10;1.90;;;;;;;18.78;36.34;100270.23;;;;-52
2020/04/21 05:18:26;;;;;;;2.09;1.89;;;;;;;18.77;36.41;100276.21;;;;-52
2020/04/21 05:21:26;;;;;;;2.06;1.87;;;;;;;18.77;36.36;100278.18;;;;-53
2020/04/21 05:24:26;;;;;;;2.49;1.88;;;;;;;18.77;36.33;100280.52;;;;-53
2020/04/21 05:27:26;;;;;;;2.31;2.01;;;;;;;18.77;36.32;100279.79;;;;-52
2020/04/21 05:30:26;;;;;;;2.16;1.84;;;;;;;18.77;36.37;100284.47;;;;-52
2020/04/21 05:33:26;;;;;;;2.11;1.91;;;;;;;18.77;36.36;100271.59;;;;-52
2020/04/21 05:36:26;;;;;;;2.53;2.00;;;;;;;18.77;36.32;100275.84;;;;-52
2020/04/21 05:39:26;;;;;;;2.55;2.07;;;;;;;18.76;36.27;100270.48;;;;-53
2020/04/21 05:42:26;;;;;;;2.09;1.89;;;;;;;18.76;36.33;100282.59;;;;-52
2020/04/21 05:45:26;;;;;;;2.04;1.84;;;;;;;18.77;36.30;100280.19;;;;-52
2020/04/21 05:48:26;;;;;;;2.46;1.99;;;;;;;18.76;36.30;100280.81;;;;-52
2020/04/21 05:51:26;;;;;;;2.10;1.90;;;;;;;18.77;36.27;100281.63;;;;-52
2020/04/21 05:54:26;;;;;;;2.65;1.92;;;;;;;18.76;36.29;100278.47;;;;-52
2020/04/21 05:57:26;;;;;;;2.36;2.11;;;;;;;18.76;36.20;100279.58;;;;-52
2020/04/21 06:00:26;;;;;;;2.13;1.93;;;;;;;18.76;36.26;100284.83;;;;-52
2020/04/21 06:03:26;;;;;;;2.15;1.95;;;;;;;18.76;36.31;100286.84;;;;-52
2020/04/21 06:06:26;;;;;;;2.20;1.95;;;;;;;18.76;36.29;100294.30;;;;-52
2020/04/21 06:09:26;;;;;;;2.32;1.96;;;;;;;18.76;36.37;100290.69;;;;-53
2020/04/21 06:12:26;;;;;;;2.43;2.00;;;;;;;18.77;36.32;100291.66;;;;-52
2020/04/21 06:15:26;;;;;;;2.10;1.90;;;;;;;18.76;36.28;100295.30;;;;-53
2020/04/21 06:18:26;;;;;;;2.53;2.10;;;;;;;18.75;36.30;100286.12;;;;-52
2020/04/21 06:21:26;;;;;;;2.31;1.99;;;;;;;18.76;36.27;100285.66;;;;-53
2020/04/21 06:24:26;;;;;;;2.69;2.18;;;;;;;18.75;36.33;100289.41;;;;-52
2020/04/21 06:27:26;;;;;;;2.45;2.14;;;;;;;18.76;36.24;100284.49;;;;-53
2020/04/21 06:30:26;;;;;;;2.01;1.82;;;;;;;18.76;36.25;100289.34;;;;-53
2020/04/21 06:33:26;;;;;;;2.41;1.99;;;;;;;18.75;36.19;100284.22;;;;-52
2020/04/21 06:36:26;;;;;;;2.38;1.91;;;;;;;18.75;36.20;100297.43;;;;-53
2020/04/21 06:39:26;;;;;;;2.99;2.00;;;;;;;18.75;36.16;100293.86;;;;-52
2020/04/21 06:42:26;;;;;;;2.36;2.16;;;;;;;18.75;36.22;100297.16;;;;-52
2020/04/21 06:45:26;;;;;;;2.30;2.09;;;;;;;18.75;36.21;100295.59;;;;-52
2020/04/21 06:48:26;;;;;;;2.28;2.08;;;;;;;18.75;36.17;100299.61;;;;-52
2020/04/21 06:51:26;;;;;;;2.47;2.00;;;;;;;18.75;36.21;100302.78;;;;-53
2020/04/21 06:54:26;;;;;;;2.35;2.11;;;;;;;18.74;36.15;100298.06;;;;-53
2020/04/21 06:57:26;;;;;;;2.53;2.07;;;;;;;18.75;36.19;100299.50;;;;-52
2020/04/21 07:00:26;;;;;;;3.17;2.09;;;;;;;18.75;36.15;100291.02;;;;-52
2020/04/21 07:03:26;;;;;;;2.17;1.97;;;;;;;18.75;36.16;100293.58;;;;-52
2020/04/21 07:06:26;;;;;;;2.13;1.93;;;;;;;18.75;36.18;100290.98;;;;-52
2020/04/21 07:09:26;;;;;;;2.81;2.19;;;;;;;18.75;36.18;100285.78;;;;-52
2020/04/21 07:12:26;;;;;;;2.61;1.81;;;;;;;18.75;36.16;100289.30;;;;-53
2020/04/21 07:15:26;;;;;;;2.08;1.88;;;;;;;18.75;36.18;100288.39;;;;-52
2020/04/21 07:18:26;;;;;;;2.70;2.07;;;;;;;18.75;36.18;100293.48;;;;-52
2020/04/21 07:21:26;;;;;;;2.64;2.13;;;;;;;18.75;36.14;100294.76;;;;-52
2020/04/21 07:24:26;;;;;;;2.29;2.09;;;;;;;18.75;36.14;100287.13;;;;-53
2020/04/21 07:27:26;;;;;;;2.35;2.15;;;;;;;18.75;36.16;100285.45;;;;-52
2020/04/21 07:30:26;;;;;;;2.22;2.00;;;;;;;18.75;36.18;100283.22;;;;-53
2020/04/21 07:36:44;;;;;;;2.62;2.26;;;;;;;18.74;36.04;100281.09;;;;-52
2020/04/21 07:39:41;;;;;;;2.52;2.14;;;;;;;18.74;36.07;100284.84;;;;-51
2020/04/21 07:42:34;;;;;;;2.55;2.05;;;;;;;18.75;36.46;100288.23;;;;-55
2020/04/21 07:45:49;;;;;;;3.23;2.17;;;;;;;18.77;36.78;100286.92;;;;-55
2020/04/21 07:49:05;;;;;;;3.40;1.99;;;;;;;18.79;36.80;100282.72;;;;-55
2020/04/21 07:54:45;;;;;;;2.51;2.19;;;;;;;18.82;37.03;100288.88;;;;-54
2020/04/21 07:57:44;;;;;;;3.47;2.12;;;;;;;18.83;36.98;100286.98;;;;-51
2020/04/21 08:06:49;;;;;;;3.92;2.19;;;;;;;18.88;37.23;100284.29;;;;-57
2020/04/21 08:14:35;;;;;;;3.27;2.10;;;;;;;18.92;37.22;100281.92;;;;-51
2020/04/21 08:17:42;;;;;;;3.33;2.20;;;;;;;18.92;37.27;100284.03;;;;-52
2020/04/21 08:29:06;;;;;;;3.71;2.24;;;;;;;18.95;37.37;100295.31;;;;-56
2020/04/21 08:31:39;;;;;;;2.31;2.11;;;;;;;18.96;37.47;100297.33;;;;-54
2020/04/21 08:34:45;;;;;;;3.27;2.12;;;;;;;18.97;37.48;100293.86;;;;-54
2020/04/21 08:37:43;;;;;;;5.68;2.05;;;;;;;18.99;37.53;100302.64;;;;-53
2020/04/21 08:43:40;;;;;;;3.08;2.19;;;;;;;18.99;37.43;100292.61;;;;-52
2020/04/21 08:51:35;;;;;;;2.10;1.90;;;;;;;19.01;37.51;100284.77;;;;-57
2020/04/21 08:56:08;;;;;;;2.88;2.00;;;;;;;19.03;37.65;100285.08;;;;-58
2020/04/21 08:58:42;;;;;;;2.80;2.12;;;;;;;19.04;37.63;100279.50;;;;-51
2020/04/21 09:01:55;;;;;;;2.35;2.11;;;;;;;19.05;37.62;100276.97;;;;-58
2020/04/21 09:04:53;;;;;;;4.14;2.25;;;;;;;19.06;37.67;100287.55;;;;-53
2020/04/21 09:10:36;;;;;;;2.79;2.10;;;;;;;19.08;37.53;100283.69;;;;-54
2020/04/21 09:13:52;;;;;;;2.93;2.23;;;;;;;19.10;37.53;100288.47;;;;-61
2020/04/21 09:38:33;;;;;;;3.19;2.15;;;;;;;19.13;37.27;100267.23;;;;-55
2020/04/21 09:41:34;;;;;;;4.40;2.31;;;;;;;19.13;37.23;100266.63;;;;-54
2020/04/21 09:44:39;;;;;;;3.67;2.33;;;;;;;19.15;37.30;100257.61;;;;-51
2020/04/21 09:47:48;;;;;;;3.16;2.15;;;;;;;19.16;37.26;100269.50;;;;-53
2020/04/21 09:50:32;;;;;;;3.49;2.23;;;;;;;19.16;37.34;100274.90;;;;-53
2020/04/21 09:53:34;;;;;;;2.85;2.17;;;;;;;19.17;37.29;100262.25;;;;-51
2020/04/21 09:56:41;;;;;;;2.88;2.18;;;;;;;19.17;37.32;100275.34;;;;-51
2020/04/21 09:59:38;;;;;;;3.04;2.41;;;;;;;19.18;37.38;100264.44;;;;-51
2020/04/21 10:02:35;;;;;;;3.77;2.20;;;;;;;19.18;37.34;100261.38;;;;-54
2020/04/21 10:05:45;;;;;;;4.23;2.31;;;;;;;19.18;37.21;100251.74;;;;-55
2020/04/21 10:08:34;;;;;;;4.52;2.29;;;;;;;19.20;37.28;100254.44;;;;-52
2020/04/21 10:12:07;;;;;;;3.06;2.10;;;;;;;19.20;37.26;100248.91;;;;-54
2020/04/21 10:14:54;;;;;;;3.99;2.49;;;;;;;19.21;37.14;100253.98;;;;-51
2020/04/21 10:17:38;;;;;;;4.07;2.25;;;;;;;19.20;37.17;100245.91;;;;-50
2020/04/21 10:20:51;;;;;;;2.78;2.20;;;;;;;19.19;37.09;100250.75;;;;-52
2020/04/21 10:23:29;;;;;;;2.50;2.19;;;;;;;19.18;37.07;100238.56;;;;-50
2020/04/21 10:26:50;;;;;;;5.19;2.13;;;;;;;19.20;37.10;100249.09;;;;-61
2020/04/21 10:37:33;;;;;;;8.01;3.01;;;;;;;19.30;37.29;100234.50;;;;-62
2020/04/21 10:45:33;;;;;;;4.54;2.41;;;;;;;19.34;37.27;100231.82;;;;-57
2020/04/21 10:48:41;;;;;;;14.25;2.65;;;;;;;19.35;37.48;100227.78;;;;-59
2020/04/21 10:51:40;;;;;;;13.29;2.41;;;;;;;19.36;37.26;100223.63;;;;-59
2020/04/21 10:57:36;;;;;;;4.67;2.30;;;;;;;19.37;37.16;100215.91;;;;-59
2020/04/21 11:03:39;;;;;;;4.59;2.62;;;;;;;19.39;37.11;100216.19;;;;-60
2020/04/21 11:11:35;;;;;;;5.13;2.17;;;;;;;19.39;37.09;100209.86;;;;-59
2020/04/21 11:14:40;;;;;;;7.28;2.20;;;;;;;19.38;37.18;100203.29;;;;-59
2020/04/21 11:22:55;;;;;;;5.89;2.34;;;;;;;19.35;37.03;100200.31;;;;-59
2020/04/21 11:30:32;;;;;;;7.52;2.37;;;;;;;19.32;36.92;100200.77;;;;-59
2020/04/21 11:33:40;;;;;;;5.10;2.36;;;;;;;19.32;36.92;100203.95;;;;-59
2020/04/21 11:36:51;;;;;;;5.33;2.27;;;;;;;19.31;36.87;100206.91;;;;-59
2020/04/21 11:45:32;;;;;;;5.62;2.41;;;;;;;19.31;37.01;100208.36;;;;-53
2020/04/21 11:48:38;;;;;;;4.77;2.24;;;;;;;19.31;37.07;100206.78;;;;-55
2020/04/21 11:51:42;;;;;;;3.19;2.05;;;;;;;19.32;37.20;100196.02;;;;-57
2020/04/21 12:06:35;;;;;;;4.55;2.30;;;;;;;19.33;37.32;100192.20;;;;-53
2020/04/21 12:14:47;;;;;;;2.93;1.96;;;;;;;19.34;37.45;100185.54;;;;-59
2020/04/21 12:17:48;;;;;;;6.25;2.15;;;;;;;19.34;37.45;100186.95;;;;-58
2020/04/21 12:20:47;;;;;;;2.95;2.23;;;;;;;19.35;37.49;100181.56;;;;-59
2020/04/21 12:23:47;;;;;;;3.31;2.19;;;;;;;19.35;37.52;100179.99;;;;-55
2020/04/21 12:26:47;;;;;;;4.51;2.28;;;;;;;19.36;37.56;100182.00;;;;-55
2020/04/21 12:29:48;;;;;;;2.80;2.08;;;;;;;19.36;37.54;100188.77;;;;-59
2020/04/21 12:32:48;;;;;;;3.51;2.06;;;;;;;19.37;37.58;100183.05;;;;-58
2020/04/21 12:35:48;;;;;;;3.24;2.12;;;;;;;19.38;37.90;100177.44;;;;-54
2020/04/21 12:38:48;;;;;;;6.69;2.11;;;;;;;19.39;37.80;100170.91;;;;-52
2020/04/21 12:41:47;;;;;;;4.32;2.25;;;;;;;19.39;37.89;100162.70;;;;-55
2020/04/21 12:44:47;;;;;;;4.83;2.09;;;;;;;19.39;37.70;100161.47;;;;-55
2020/04/21 12:47:47;;;;;;;7.26;2.22;;;;;;;19.39;37.74;100156.91;;;;-54
2020/04/21 12:50:48;;;;;;;3.07;2.09;;;;;;;19.41;37.64;100162.68;;;;-55
2020/04/21 12:53:47;;;;;;;2.26;1.90;;;;;;;19.40;37.67;100156.65;;;;-56
2020/04/21 12:56:48;;;;;;;4.47;1.91;;;;;;;19.41;37.51;100157.80;;;;-59
2020/04/21 12:59:47;;;;;;;3.86;2.04;;;;;;;19.40;37.59;100149.95;;;;-53
2020/04/21 13:02:47;;;;;;;3.02;2.03;;;;;;;19.42;37.46;100147.81;;;;-55
2020/04/21 13:05:47;;;;;;;3.85;2.12;;;;;;;19.41;37.49;100146.38;;;;-62
2020/04/21 13:08:48;;;;;;;3.65;1.89;;;;;;;19.42;37.54;100149.19;;;;-59
2020/04/21 13:11:47;;;;;;;3.33;2.09;;;;;;;19.41;37.48;100139.23;;;;-58
2020/04/21 13:14:48;;;;;;;2.62;2.06;;;;;;;19.42;37.55;100135.42;;;;-56
2020/04/21 13:17:47;;;;;;;8.79;2.20;;;;;;;19.41;37.54;100135.69;;;;-56
2020/04/21 13:20:48;;;;;;;2.76;2.05;;;;;;;19.43;37.61;100135.94;;;;-53
2020/04/21 13:23:47;;;;;;;2.31;1.92;;;;;;;19.44;37.60;100135.94;;;;-52
2020/04/21 13:26:47;;;;;;;2.71;2.04;;;;;;;19.44;37.56;100130.81;;;;-52
2020/04/21 13:29:47;;;;;;;4.98;1.85;;;;;;;19.45;37.69;100122.81;;;;-55
2020/04/21 13:32:47;;;;;;;3.37;1.92;;;;;;;19.45;37.71;100126.00;;;;-56
2020/04/21 13:35:50;;;;;;;3.21;2.09;;;;;;;19.45;37.67;100115.88;;;;-56
2020/04/21 13:38:48;;;;;;;3.38;2.15;;;;;;;19.46;37.71;100124.02;;;;-54
2020/04/21 13:42:07;;;;;;;3.32;1.99;;;;;;;19.45;37.75;100116.05;;;;-53
2020/04/21 13:44:47;;;;;;;2.98;1.88;;;;;;;19.47;37.66;100114.05;;;;-51
2020/04/21 13:47:47;;;;;;;2.80;1.83;;;;;;;19.46;37.77;100108.48;;;;-54
2020/04/21 13:50:47;;;;;;;2.23;1.93;;;;;;;19.47;37.67;100115.63;;;;-54
2020/04/21 13:53:47;;;;;;;2.67;2.17;;;;;;;19.47;37.69;100112.34;;;;-54
2020/04/21 13:56:47;;;;;;;5.62;2.02;;;;;;;19.47;37.71;100115.63;;;;-55
2020/04/21 13:59:48;;;;;;;3.14;1.97;;;;;;;19.47;37.71;100101.83;;;;-54
2020/04/21 14:02:48;;;;;;;4.74;1.93;;;;;;;19.48;37.75;100104.17;;;;-57
2020/04/21 14:05:47;;;;;;;4.85;2.07;;;;;;;19.48;37.77;100104.61;;;;-61
2020/04/21 14:08:47;;;;;;;3.11;1.90;;;;;;;19.49;37.68;100100.86;;;;-63
2020/04/21 14:11:47;;;;;;;2.76;1.81;;;;;;;19.46;37.72;100101.86;;;;-63
2020/04/21 14:14:47;;;;;;;3.51;1.83;;;;;;;19.45;37.65;100092.77;;;;-63
2020/04/21 14:17:47;;;;;;;2.40;1.78;;;;;;;19.46;37.60;100109.13;;;;-63
2020/04/21 14:20:47;;;;;;;2.29;1.77;;;;;;;19.45;37.60;100098.20;;;;-62
2020/04/21 14:23:47;;;;;;;2.89;1.83;;;;;;;19.44;37.54;100101.67;;;;-62
2020/04/21 14:26:47;;;;;;;3.20;1.95;;;;;;;19.42;37.49;100105.59;;;;-63
2020/04/21 14:29:47;;;;;;;4.04;1.88;;;;;;;19.41;37.46;100101.36;;;;-63
2020/04/21 14:32:47;;;;;;;5.38;2.00;;;;;;;19.46;37.59;100111.33;;;;-58
2020/04/21 14:35:47;;;;;;;5.53;1.95;;;;;;;19.46;37.48;100109.62;;;;-58
2020/04/21 14:38:47;;;;;;;2.39;1.92;;;;;;;19.44;37.38;100110.82;;;;-58
2020/04/21 14:41:48;;;;;;;4.56;1.85;;;;;;;19.44;37.29;100113.44;;;;-58
2020/04/21 14:44:48;;;;;;;3.77;2.02;;;;;;;19.43;37.30;100108.10;;;;-58
2020/04/21 14:47:47;;;;;;;3.77;1.97;;;;;;;19.42;37.26;100108.16;;;;-57
2020/04/21 14:50:47;;;;;;;2.88;1.97;;;;;;;19.42;37.33;100104.91;;;;-53
2020/04/21 14:53:47;;;;;;;3.75;2.06;;;;;;;19.43;37.38;100119.89;;;;-58
2020/04/21 14:56:47;;;;;;;3.68;1.81;;;;;;;19.43;37.40;100111.55;;;;-56
2020/04/21 14:59:47;;;;;;;4.45;1.92;;;;;;;19.43;37.41;100110.72;;;;-55
2020/04/21 15:02:48;;;;;;;4.83;2.03;;;;;;;19.44;37.42;100113.23;;;;-59
2020/04/21 15:05:47;;;;;;;2.33;1.79;;;;;;;19.44;37.42;100123.72;;;;-52
2020/04/21 15:08:47;;;;;;;5.29;1.85;;;;;;;19.47;37.52;100121.32;;;;-54
2020/04/21 15:11:47;;;;;;;8.39;2.14;;;;;;;19.49;37.62;100121.97;;;;-50
2020/04/21 15:14:47;;;;;;;10.18;2.13;;;;;;;19.50;37.63;100106.87;;;;-54
2020/04/21 15:17:47;;;;;;;4.07;1.88;;;;;;;19.51;37.71;100126.84;;;;-52
2020/04/21 15:20:48;;;;;;;6.25;2.01;;;;;;;19.51;37.71;100124.59;;;;-56
2020/04/21 15:23:48;;;;;;;2.91;1.90;;;;;;;19.50;37.74;100114.41;;;;-54
2020/04/21 15:26:47;;;;;;;3.74;1.91;;;;;;;19.51;37.73;100118.56;;;;-54
2020/04/21 15:29:47;;;;;;;12.35;2.22;;;;;;;19.55;37.88;100126.33;;;;-57
2020/04/21 15:32:47;;;;;;;9.32;2.14;;;;;;;19.57;37.83;100122.72;;;;-59
2020/04/21 15:35:47;;;;;;;12.47;2.35;;;;;;;19.59;37.79;100111.63;;;;-52
2020/04/21 15:38:47;;;;;;;3.80;1.78;;;;;;;19.58;37.86;100121.81;;;;-52
2020/04/21 15:41:47;;;;;;;10.31;2.27;;;;;;;19.59;37.86;100120.61;;;;-52
2020/04/21 15:44:47;;;;;;;3.84;1.96;;;;;;;19.59;37.87;100120.11;;;;-52
2020/04/21 15:47:47;;;;;;;9.65;2.10;;;;;;;19.60;38.03;100116.97;;;;-55
2020/04/21 15:50:47;;;;;;;9.12;2.17;;;;;;;19.62;37.77;100121.20;;;;-56
2020/04/21 15:53:47;;;;;;;4.61;2.02;;;;;;;19.61;37.84;100124.38;;;;-55
2020/04/21 15:56:47;;;;;;;5.60;2.09;;;;;;;19.62;37.71;100130.75;;;;-52
2020/04/21 15:59:47;;;;;;;6.17;2.16;;;;;;;19.61;37.78;100137.41;;;;-53
2020/04/21 16:02:47;;;;;;;5.86;2.09;;;;;;;19.61;37.80;100133.99;;;;-58
2020/04/21 16:05:48;;;;;;;6.05;2.20;;;;;;;19.60;37.76;100134.22;;;;-56
2020/04/21 16:08:47;;;;;;;7.79;1.95;;;;;;;19.59;37.75;100127.48;;;;-56
2020/04/21 16:11:47;;;;;;;6.35;2.14;;;;;;;19.59;37.85;100130.56;;;;-53
2020/04/21 16:14:47;;;;;;;7.41;2.31;;;;;;;19.59;37.72;100127.15;;;;-53
2020/04/21 16:17:47;;;;;;;4.24;1.95;;;;;;;19.60;37.85;100127.32;;;;-64
2020/04/21 16:20:47;;;;;;;3.61;2.00;;;;;;;19.60;37.79;100135.13;;;;-56
2020/04/21 16:23:47;;;;;;;3.70;2.00;;;;;;;19.59;37.75;100136.03;;;;-62
2020/04/21 16:26:47;;;;;;;3.59;1.93;;;;;;;19.60;37.79;100142.83;;;;-57
2020/04/21 16:29:47;;;;;;;2.91;1.97;;;;;;;19.59;37.79;100136.03;;;;-53
2020/04/21 16:32:47;;;;;;;5.10;2.15;;;;;;;19.60;37.88;100135.63;;;;-62
2020/04/21 16:35:47;;;;;;;5.47;2.07;;;;;;;19.61;37.86;100133.89;;;;-59
2020/04/21 16:38:47;;;;;;;4.18;1.97;;;;;;;19.60;37.90;100134.22;;;;-55
2020/04/21 16:41:47;;;;;;;3.18;1.96;;;;;;;19.61;37.87;100135.40;;;;-52
2020/04/21 16:44:47;;;;;;;4.03;1.84;;;;;;;19.61;37.88;100141.59;;;;-52
2020/04/21 16:47:47;;;;;;;4.83;1.98;;;;;;;19.61;37.90;100147.29;;;;-61
2020/04/21 16:50:47;;;;;;;3.95;1.78;;;;;;;19.61;38.00;100147.73;;;;-59
2020/04/21 16:53:47;;;;;;;3.21;1.89;;;;;;;19.60;37.96;100145.78;;;;-58
2020/04/21 16:56:47;;;;;;;3.67;2.10;;;;;;;19.62;38.03;100149.61;;;;-56
2020/04/21 16:59:47;;;;;;;2.67;1.70;;;;;;;19.62;37.95;100155.97;;;;-58
2020/04/21 17:02:47;;;;;;;2.57;1.81;;;;;;;19.61;37.94;100154.70;;;;-57
2020/04/21 17:05:47;;;;;;;3.40;2.08;;;;;;;19.61;37.96;100152.02;;;;-57
2020/04/21 17:08:48;;;;;;;3.07;1.75;;;;;;;19.63;37.97;100157.35;;;;-51
2020/04/21 17:11:47;;;;;;;4.22;1.95;;;;;;;19.62;37.82;100161.50;;;;-51
2020/04/21 17:14:47;;;;;;;2.40;1.73;;;;;;;19.61;37.85;100162.87;;;;-51
2020/04/21 17:17:47;;;;;;;1.91;1.71;;;;;;;19.60;37.78;100162.09;;;;-53
2020/04/21 17:20:47;;;;;;;3.06;1.90;;;;;;;19.60;37.65;100169.53;;;;-51
2020/04/21 17:23:47;;;;;;;4.31;1.93;;;;;;;19.59;37.63;100177.13;;;;-51
2020/04/21 17:26:47;;;;;;;2.68;1.82;;;;;;;19.57;37.53;100183.86;;;;-51
2020/04/21 17:29:47;;;;;;;2.02;1.73;;;;;;;19.57;37.46;100186.53;;;;-52
2020/04/21 17:32:47;;;;;;;3.59;1.97;;;;;;;19.56;37.45;100192.59;;;;-52
2020/04/21 17:35:47;;;;;;;2.50;1.84;;;;;;;19.55;37.33;100190.54;;;;-52
2020/04/21 17:38:47;;;;;;;2.08;1.83;;;;;;;19.55;37.32;100198.92;;;;-52
2020/04/21 17:41:47;;;;;;;2.89;1.81;;;;;;;19.54;37.32;100199.87;;;;-52
2020/04/21 17:44:47;;;;;;;4.25;1.79;;;;;;;19.54;37.27;100204.40;;;;-52
2020/04/21 17:47:47;;;;;;;3.79;1.93;;;;;;;19.53;37.32;100200.84;;;;-52
2020/04/21 17:50:47;;;;;;;3.81;1.93;;;;;;;19.52;37.26;100208.11;;;;-52
2020/04/21 17:53:47;;;;;;;2.78;1.90;;;;;;;19.51;37.22;100206.06;;;;-52
2020/04/21 17:56:47;;;;;;;2.40;1.71;;;;;;;19.51;37.25;100208.47;;;;-52
2020/04/21 17:59:47;;;;;;;2.05;1.85;;;;;;;19.51;37.23;100216.34;;;;-52
2020/04/21 18:02:47;;;;;;;2.45;1.90;;;;;;;19.50;37.18;100219.02;;;;-52
2020/04/21 18:05:48;;;;;;;5.34;2.31;;;;;;;19.51;37.42;100219.45;;;;-49
2020/04/21 18:08:47;;;;;;;3.46;1.95;;;;;;;19.53;37.62;100221.55;;;;-51
2020/04/21 18:11:47;;;;;;;4.27;1.87;;;;;;;19.55;37.79;100229.40;;;;-56
2020/04/21 18:14:47;;;;;;;3.07;1.85;;;;;;;19.56;37.91;100229.38;;;;-51
2020/04/21 18:17:47;;;;;;;2.47;1.91;;;;;;;19.58;37.86;100238.33;;;;-53
2020/04/21 18:20:47;;;;;;;4.47;1.97;;;;;;;19.58;38.01;100241.18;;;;-54
2020/04/21 18:23:47;;;;;;;4.59;2.03;;;;;;;19.59;38.00;100249.33;;;;-54
2020/04/21 18:26:47;;;;;;;2.43;1.82;;;;;;;19.59;38.01;100251.50;;;;-56
2020/04/21 18:29:47;;;;;;;4.74;1.88;;;;;;;19.58;38.06;100260.11;;;;-55
2020/04/21 18:32:47;;;;;;;6.90;2.09;;;;;;;19.59;38.08;100259.15;;;;-55
2020/04/21 18:35:47;;;;;;;3.79;1.80;;;;;;;19.60;38.07;100263.27;;;;-59
2020/04/21 18:38:47;;;;;;;2.89;1.94;;;;;;;19.61;38.11;100271.92;;;;-51
2020/04/21 18:41:47;;;;;;;4.29;1.89;;;;;;;19.61;38.02;100267.00;;;;-56
2020/04/21 18:44:47;;;;;;;2.24;1.85;;;;;;;19.60;38.00;100272.25;;;;-56
2020/04/21 18:47:48;;;;;;;4.34;1.80;;;;;;;19.59;37.87;100276.73;;;;-56
2020/04/21 18:50:48;;;;;;;3.29;1.85;;;;;;;19.58;37.77;100283.73;;;;-56
2020/04/21 18:53:47;;;;;;;2.20;1.93;;;;;;;19.57;37.75;100290.39;;;;-56
2020/04/21 18:56:47;;;;;;;4.09;1.91;;;;;;;19.57;37.73;100289.45;;;;-55
2020/04/21 18:59:47;;;;;;;2.35;1.83;;;;;;;19.56;37.64;100292.76;;;;-56
2020/04/21 19:02:47;;;;;;;3.95;1.96;;;;;;;19.55;37.63;100291.37;;;;-55
2020/04/21 19:05:47;;;;;;;3.22;1.83;;;;;;;19.54;37.61;100293.84;;;;-56
2020/04/21 19:08:47;;;;;;;3.87;1.97;;;;;;;19.54;37.56;100301.82;;;;-56
2020/04/21 19:11:47;;;;;;;2.76;1.69;;;;;;;19.53;37.58;100306.03;;;;-56
2020/04/21 19:14:47;;;;;;;2.01;1.70;;;;;;;19.53;37.50;100313.06;;;;-55
2020/04/21 19:17:47;;;;;;;3.06;1.92;;;;;;;19.52;37.50;100319.16;;;;-54
2020/04/21 19:20:47;;;;;;;2.06;1.86;;;;;;;19.51;37.46;100321.80;;;;-56
2020/04/21 19:23:47;;;;;;;1.98;1.70;;;;;;;19.51;37.46;100332.02;;;;-55
2020/04/21 19:26:47;;;;;;;2.33;2.06;;;;;;;19.50;37.40;100336.26;;;;-56
2020/04/21 19:29:47;;;;;;;2.64;1.87;;;;;;;19.52;37.52;100338.25;;;;-52
2020/04/21 19:32:47;;;;;;;2.79;1.82;;;;;;;19.52;37.56;100344.19;;;;-56
2020/04/21 19:35:47;;;;;;;2.11;1.90;;;;;;;19.52;37.68;100348.20;;;;-59
2020/04/21 19:38:47;;;;;;;2.90;1.90;;;;;;;19.53;37.66;100355.05;;;;-59
2020/04/21 19:41:47;;;;;;;3.21;1.79;;;;;;;19.53;37.79;100358.39;;;;-55
2020/04/21 19:44:47;;;;;;;2.66;1.81;;;;;;;19.54;37.76;100359.50;;;;-61
2020/04/21 19:47:47;;;;;;;2.90;1.81;;;;;;;19.54;37.69;100363.46;;;;-58
2020/04/21 19:50:47;;;;;;;2.15;1.85;;;;;;;19.55;37.63;100365.18;;;;-59
2020/04/21 19:53:47;;;;;;;3.02;1.87;;;;;;;19.54;37.66;100363.30;;;;-55
2020/04/21 19:56:47;;;;;;;2.08;1.89;;;;;;;19.54;37.68;100363.80;;;;-59
2020/04/21 19:59:47;;;;;;;2.48;1.82;;;;;;;19.56;37.65;100366.89;;;;-55
2020/04/21 20:02:47;;;;;;;2.64;1.70;;;;;;;19.57;37.76;100367.34;;;;-61